Time;durP1;ratioP1;P1;durP2;ratioP2;P2;SDS_P1;SDS_P2;PMS_P1;PMS_P2;Temp;Humidity;BMP_temperature;BMP_pressure;BME280_temperature;BME280_humidity;BME280_pressure;Samples;Min_cycle;Max_cycle;Signal;HPM_P1;HPM_P2
2024/03/13 00:00:10;;;;;;;12.47;8.70;;;8.50;99.90;;;;;;5036921;28;20523;-66
2024/03/13 00:02:37;;;;;;;13.13;9.40;;;8.40;99.90;;;;;;5034831;28;20478;-65
2024/03/13 00:05:04;;;;;;;14.37;9.60;;;8.40;99.90;;;;;;5036877;28;20887;-65
2024/03/13 00:07:31;;;;;;;16.57;10.30;;;8.40;99.90;;;;;;5034863;28;20800;-65
2024/03/13 00:09:57;;;;;;;16.70;9.20;;;8.40;99.90;;;;;;5035828;28;20435;-66
2024/03/13 00:12:24;;;;;;;14.83;8.63;;;8.40;99.90;;;;;;5036628;28;21002;-65
2024/03/13 00:14:51;;;;;;;12.90;8.97;;;8.40;99.90;;;;;;5037168;28;20425;-65
2024/03/13 00:17:20;;;;;;;15.93;9.93;;;8.40;99.90;;;;;;5035550;28;20914;-66
2024/03/13 00:19:47;;;;;;;14.20;9.70;;;8.50;99.90;;;;;;5037174;28;21159;-65
2024/03/13 00:22:18;;;;;;;17.00;10.90;;;8.50;99.90;;;;;;5036401;28;20540;-67
2024/03/13 00:24:47;;;;;;;13.50;8.30;;;8.50;99.90;;;;;;5036782;28;20468;-65
2024/03/13 00:27:14;;;;;;;15.10;9.97;;;8.60;99.90;;;;;;5035027;28;20938;-65
2024/03/13 00:29:41;;;;;;;13.37;9.43;;;8.50;99.90;;;;;;5036624;28;20486;-66
2024/03/13 00:32:07;;;;;;;15.50;9.23;;;8.50;99.90;;;;;;5036892;28;20432;-66
2024/03/13 00:34:33;;;;;;;14.63;9.33;;;8.60;99.90;;;;;;5035721;28;20524;-65
2024/03/13 00:36:59;;;;;;;12.77;8.70;;;8.60;99.90;;;;;;5036977;28;20424;-65
2024/03/13 00:39:25;;;;;;;14.07;8.80;;;8.60;99.90;;;;;;5035968;28;20468;-65
2024/03/13 00:41:50;;;;;;;13.80;9.07;;;8.60;99.90;;;;;;5036796;28;20432;-65
2024/03/13 00:44:16;;;;;;;10.23;7.80;;;8.60;99.90;;;;;;5036272;28;20188;-66
2024/03/13 00:46:43;;;;;;;16.03;8.00;;;8.50;99.90;;;;;;5035368;28;20673;-66
2024/03/13 00:49:08;;;;;;;13.30;8.50;;;8.50;99.90;;;;;;5036114;28;20216;-65
2024/03/13 00:51:35;;;;;;;13.53;8.70;;;8.50;99.90;;;;;;5035692;28;20979;-66
2024/03/13 00:54:04;;;;;;;15.50;9.30;;;8.50;99.90;;;;;;5036828;28;20462;-65
2024/03/13 00:56:32;;;;;;;12.63;8.17;;;8.50;99.90;;;;;;5035489;28;20462;-66
2024/03/13 00:58:58;;;;;;;13.50;8.67;;;8.50;99.90;;;;;;5035587;28;20437;-65
2024/03/13 01:01:24;;;;;;;11.60;8.30;;;8.50;99.90;;;;;;5035518;28;20802;-65
2024/03/13 01:03:51;;;;;;;14.20;8.37;;;8.50;99.90;;;;;;5036793;28;20447;-65
2024/03/13 01:06:17;;;;;;;11.80;8.20;;;8.60;99.90;;;;;;5035587;28;20472;-66
2024/03/13 01:08:44;;;;;;;12.90;7.97;;;8.70;99.90;;;;;;5035503;28;20429;-66
2024/03/13 01:11:10;;;;;;;11.77;8.10;;;8.70;99.90;;;;;;5035822;28;20436;-65
2024/03/13 01:13:36;;;;;;;10.93;7.80;;;8.60;99.90;;;;;;5035397;28;21007;-65
2024/03/13 01:16:02;;;;;;;15.50;9.40;;;8.60;99.90;;;;;;5035499;28;20424;-66
2024/03/13 01:18:28;;;;;;;13.67;8.23;;;8.60;99.90;;;;;;5035226;28;20454;-65
2024/03/13 01:20:53;;;;;;;12.73;8.80;;;8.60;99.90;;;;;;5036180;28;20186;-65
2024/03/13 01:23:20;;;;;;;12.33;8.17;;;8.60;99.90;;;;;;5035303;28;20181;-66
2024/03/13 01:25:47;;;;;;;11.50;8.70;;;8.60;99.90;;;;;;5035601;28;20201;-66
2024/03/13 01:28:13;;;;;;;10.20;7.57;;;8.60;99.90;;;;;;5034869;28;20429;-66
2024/03/13 01:30:39;;;;;;;12.30;7.83;;;8.70;99.90;;;;;;5035050;28;20428;-65
2024/03/13 01:33:06;;;;;;;11.30;8.63;;;8.70;99.90;;;;;;5035745;28;20272;-66
2024/03/13 01:35:31;;;;;;;11.30;7.40;;;8.60;99.90;;;;;;5034139;28;20204;-66
2024/03/13 01:38:01;;;;;;;11.63;7.93;;;8.60;99.90;;;;;;5035392;28;20432;-65
2024/03/13 01:54:50;;;;;;;11.60;7.53;;;8.60;99.90;;;;;;5034956;28;20220;-66
2024/03/13 01:55:09;;;;;;;;;;;;;;;;;;;;;
2024/03/13 01:57:45;;;;;;;10.17;7.10;;;8.60;99.90;;;;;;5033743;28;20425;-66
2024/03/13 02:02:55;;;;;;;9.37;6.60;;;8.50;99.90;;;;;;5034891;28;20425;-66
2024/03/13 02:05:21;;;;;;;8.73;7.53;;;8.50;99.90;;;;;;5034532;28;20527;-65
2024/03/13 02:07:48;;;;;;;11.30;7.93;;;8.40;99.90;;;;;;5035024;28;20439;-66
2024/03/13 02:10:14;;;;;;;8.73;6.60;;;8.50;99.90;;;;;;5033923;28;20210;-67
2024/03/13 02:13:04;;;;;;;10.30;7.10;;;8.60;99.90;;;;;;5034183;28;20431;-66
2024/03/13 02:15:29;;;;;;;11.23;6.70;;;8.50;99.90;;;;;;5033857;28;20541;-66
2024/03/13 02:17:55;;;;;;;11.30;7.93;;;8.50;99.90;;;;;;5034976;28;20499;-66
2024/03/13 02:20:24;;;;;;;8.63;6.53;;;8.50;99.90;;;;;;5034117;28;20640;-65
2024/03/13 02:23:18;;;;;;;9.10;7.10;;;8.60;99.90;;;;;;5034990;28;20235;-66
2024/03/13 02:25:44;;;;;;;8.93;7.10;;;8.60;99.90;;;;;;5031732;28;20587;-66
2024/03/13 02:28:10;;;;;;;8.20;6.07;;;8.60;99.90;;;;;;5034443;28;20531;-67
2024/03/13 02:30:35;;;;;;;13.70;7.23;;;8.60;99.90;;;;;;5034270;28;20194;-66
2024/03/13 02:33:01;;;;;;;7.97;5.73;;;8.60;99.90;;;;;;5034817;28;20182;-66
2024/03/13 02:35:27;;;;;;;10.03;7.17;;;8.50;99.90;;;;;;5033917;28;20182;-66
2024/03/13 02:37:52;;;;;;;8.90;6.00;;;8.60;99.90;;;;;;5034803;28;20416;-66
2024/03/13 02:40:18;;;;;;;7.90;6.13;;;8.60;99.90;;;;;;5032997;28;20292;-66
2024/03/13 02:42:44;;;;;;;7.47;5.77;;;8.60;99.90;;;;;;5035337;28;20185;-66
2024/03/13 02:45:13;;;;;;;9.03;6.87;;;8.60;99.90;;;;;;5034190;28;20213;-66
2024/03/13 02:47:42;;;;;;;9.17;6.57;;;8.60;99.90;;;;;;5033910;28;21026;-66
2024/03/13 02:50:11;;;;;;;7.60;6.20;;;8.60;99.90;;;;;;5033697;28;20433;-66
2024/03/13 02:52:40;;;;;;;7.90;6.10;;;8.70;99.90;;;;;;5033834;28;20433;-66
2024/03/13 02:55:07;;;;;;;7.63;5.50;;;8.60;99.90;;;;;;5033935;28;20425;-66
2024/03/13 02:57:33;;;;;;;8.50;5.73;;;8.60;99.90;;;;;;5034678;28;20809;-65
2024/03/13 02:59:59;;;;;;;11.30;5.40;;;8.60;99.90;;;;;;5033767;28;20470;-65
2024/03/13 03:02:25;;;;;;;6.67;4.80;;;8.60;99.90;;;;;;5033562;28;20465;-65
2024/03/13 03:04:51;;;;;;;7.07;4.30;;;8.60;99.90;;;;;;5034054;28;20182;-66
2024/03/13 03:07:17;;;;;;;5.67;4.80;;;8.60;99.90;;;;;;5033065;28;20463;-65
2024/03/13 03:09:43;;;;;;;9.23;5.40;;;8.60;99.90;;;;;;5035410;28;20432;-66
2024/03/13 03:12:12;;;;;;;5.83;4.50;;;8.60;99.90;;;;;;5032765;28;20420;-66
2024/03/13 03:14:39;;;;;;;5.30;4.20;;;8.60;99.90;;;;;;5034139;28;20556;-66
2024/03/13 03:17:08;;;;;;;6.07;4.60;;;8.70;99.90;;;;;;5033201;28;20452;-66
2024/03/13 03:19:34;;;;;;;4.70;3.90;;;8.70;99.90;;;;;;5033571;28;21006;-65
2024/03/13 03:22:03;;;;;;;4.40;3.70;;;8.70;99.90;;;;;;5033971;28;20447;-66
2024/03/13 03:24:32;;;;;;;5.33;4.10;;;8.70;99.90;;;;;;5032969;28;20428;-66
2024/03/13 03:26:58;;;;;;;5.83;3.90;;;8.80;99.90;;;;;;5033556;28;20485;-66
2024/03/13 03:29:24;;;;;;;5.60;4.53;;;8.80;99.90;;;;;;5033092;28;20425;-66
2024/03/13 03:31:50;;;;;;;5.50;4.40;;;8.80;99.90;;;;;;5034180;28;20757;-66
2024/03/13 03:34:16;;;;;;;5.83;4.20;;;8.80;99.90;;;;;;5033156;28;20518;-67
2024/03/13 03:36:42;;;;;;;5.37;4.00;;;8.90;99.90;;;;;;5033094;28;20640;-66
2024/03/13 03:39:10;;;;;;;4.40;3.60;;;8.80;99.90;;;;;;5033491;28;20503;-66
2024/03/13 03:41:39;;;;;;;5.70;4.10;;;8.80;99.90;;;;;;5033757;28;20201;-66
2024/03/13 03:44:05;;;;;;;5.10;4.00;;;8.80;99.90;;;;;;5033047;28;20437;-66
2024/03/13 03:46:31;;;;;;;4.70;3.67;;;8.80;99.90;;;;;;5033043;28;20498;-66
2024/03/13 03:48:58;;;;;;;3.90;3.30;;;8.80;99.90;;;;;;5033833;28;20425;-65
2024/03/13 03:51:26;;;;;;;4.00;3.60;;;8.80;99.90;;;;;;5033730;28;21110;-66
2024/03/13 03:53:51;;;;;;;4.53;3.60;;;8.80;99.90;;;;;;5033971;28;20437;-66
2024/03/13 03:56:17;;;;;;;4.80;4.10;;;8.80;99.90;;;;;;5033056;28;21015;-66
2024/03/13 03:58:43;;;;;;;3.47;3.17;;;8.90;99.90;;;;;;5034465;28;20303;-65
2024/03/13 04:01:09;;;;;;;4.63;3.17;;;8.80;99.90;;;;;;5033110;28;20535;-65
2024/03/13 04:03:35;;;;;;;3.57;3.27;;;8.80;99.90;;;;;;5036885;28;20269;-65
2024/03/13 04:06:00;;;;;;;3.90;3.50;;;8.90;99.90;;;;;;5037130;28;20554;-65
2024/03/13 04:08:28;;;;;;;3.40;3.10;;;8.90;99.90;;;;;;5036485;28;20186;-65
2024/03/13 04:10:54;;;;;;;4.87;3.83;;;8.90;99.90;;;;;;5037888;28;20193;-66
2024/03/13 04:13:21;;;;;;;3.83;3.40;;;8.90;99.90;;;;;;5035546;28;21020;-65
2024/03/13 04:15:50;;;;;;;4.37;3.60;;;8.90;99.90;;;;;;5037730;28;20455;-65
2024/03/13 04:18:17;;;;;;;4.40;3.20;;;9.00;99.90;;;;;;5035514;28;21042;-66
2024/03/13 04:20:45;;;;;;;4.00;2.83;;;9.00;99.90;;;;;;5037811;28;20466;-65
2024/03/13 04:23:13;;;;;;;3.77;3.23;;;9.00;99.90;;;;;;5035647;28;21240;-66
2024/03/13 04:25:44;;;;;;;4.03;3.00;;;9.10;99.90;;;;;;5036525;28;20495;-66
2024/03/13 04:28:11;;;;;;;2.97;2.60;;;9.00;99.90;;;;;;5035386;28;20438;-66
2024/03/13 04:30:40;;;;;;;3.93;3.30;;;8.90;99.90;;;;;;5037631;28;20467;-66
2024/03/13 04:33:06;;;;;;;3.30;2.67;;;9.00;99.90;;;;;;5036257;28;20447;-66
2024/03/13 04:35:32;;;;;;;4.07;3.67;;;9.00;99.90;;;;;;5037487;28;20432;-66
2024/03/13 04:37:58;;;;;;;2.97;2.70;;;9.00;99.90;;;;;;5036761;28;20437;-66
2024/03/13 04:40:23;;;;;;;3.53;2.80;;;9.00;99.90;;;;;;5036624;28;20268;-65
2024/03/13 04:42:49;;;;;;;3.60;3.30;;;9.00;99.90;;;;;;5037455;28;20852;-66
2024/03/13 04:45:15;;;;;;;3.60;3.30;;;9.00;99.90;;;;;;5035388;28;20221;-66
2024/03/13 04:47:41;;;;;;;4.63;3.20;;;9.00;99.90;;;;;;5037025;28;20449;-66
2024/03/13 04:50:11;;;;;;;3.80;2.43;;;9.00;99.90;;;;;;5036176;28;20433;-66
2024/03/13 04:52:37;;;;;;;6.77;3.10;;;9.00;99.90;;;;;;5036791;28;20428;-66
2024/03/13 04:55:04;;;;;;;4.83;3.50;;;9.10;99.90;;;;;;5036555;28;20928;-66
2024/03/13 04:57:29;;;;;;;3.23;2.90;;;9.10;99.90;;;;;;5035346;28;20432;-66
2024/03/13 04:59:55;;;;;;;3.30;3.00;;;9.10;99.90;;;;;;5037181;28;20458;-66
2024/03/13 05:02:21;;;;;;;3.50;3.10;;;9.10;99.90;;;;;;5035821;28;20891;-66
2024/03/13 05:04:47;;;;;;;2.93;2.63;;;9.10;99.90;;;;;;5069176;28;20190;-66
2024/03/13 05:07:13;;;;;;;3.07;2.60;;;9.10;99.90;;;;;;5035422;28;20220;-67
2024/03/13 05:09:41;;;;;;;3.57;3.27;;;9.10;99.90;;;;;;5036787;28;20185;-66
2024/03/13 05:12:07;;;;;;;3.80;2.90;;;9.10;99.90;;;;;;5034763;28;20429;-66
2024/03/13 05:14:33;;;;;;;2.97;2.67;;;9.20;99.90;;;;;;5036938;28;20440;-66
2024/03/13 05:16:59;;;;;;;3.50;2.70;;;9.20;99.90;;;;;;5035717;28;20277;-66
2024/03/13 05:19:25;;;;;;;3.20;2.80;;;9.20;99.90;;;;;;5036453;28;20598;-65
2024/03/13 05:21:52;;;;;;;2.57;2.37;;;9.20;99.90;;;;;;5036310;28;20181;-66
2024/03/13 05:24:17;;;;;;;3.10;2.80;;;9.20;99.90;;;;;;5035574;28;20210;-66
2024/03/13 05:26:43;;;;;;;2.87;2.47;;;9.20;99.90;;;;;;5035310;28;20512;-66
2024/03/13 05:29:09;;;;;;;3.10;2.80;;;9.20;99.90;;;;;;5035255;28;20685;-65
2024/03/13 05:31:38;;;;;;;3.47;2.93;;;9.20;99.90;;;;;;5036676;28;20185;-66
2024/03/13 05:34:04;;;;;;;3.20;2.70;;;9.20;99.90;;;;;;5035562;28;20444;-66
2024/03/13 05:36:32;;;;;;;3.40;3.10;;;9.10;99.90;;;;;;5035829;28;20440;-65
2024/03/13 05:38:57;;;;;;;3.07;2.70;;;9.10;99.90;;;;;;5034921;28;20502;-66
2024/03/13 05:41:23;;;;;;;3.23;2.93;;;9.10;99.90;;;;;;5035430;28;20437;-66
2024/03/13 05:43:50;;;;;;;3.93;2.83;;;9.20;99.90;;;;;;5035565;28;20186;-65
2024/03/13 05:46:16;;;;;;;3.17;2.30;;;9.20;99.90;;;;;;5033895;28;20361;-66
2024/03/13 05:48:42;;;;;;;2.80;2.60;;;9.20;99.90;;;;;;5035674;28;20540;-66
2024/03/13 05:51:08;;;;;;;3.83;3.13;;;9.20;99.90;;;;;;5034975;28;20529;-66
2024/03/13 05:53:34;;;;;;;3.93;3.30;;;9.20;99.90;;;;;;5036268;28;20610;-66
2024/03/13 05:56:00;;;;;;;3.83;3.10;;;9.20;99.90;;;;;;5034871;28;20435;-66
2024/03/13 05:58:26;;;;;;;3.00;2.73;;;9.10;99.90;;;;;;5034074;28;20198;-66
2024/03/13 06:00:52;;;;;;;3.63;3.10;;;9.10;99.90;;;;;;5034492;28;20455;-66
2024/03/13 06:03:18;;;;;;;3.40;2.93;;;9.20;99.90;;;;;;5034453;28;20999;-65
2024/03/13 06:05:47;;;;;;;3.80;3.33;;;9.20;99.90;;;;;;5035430;28;20503;-66
2024/03/13 06:08:13;;;;;;;4.10;3.60;;;9.20;99.90;;;;;;5034182;28;20443;-66
2024/03/13 06:10:39;;;;;;;3.63;3.23;;;9.20;99.90;;;;;;5035459;28;20818;-65
2024/03/13 06:13:04;;;;;;;3.93;3.17;;;9.20;99.90;;;;;;5034508;28;20189;-66
2024/03/13 06:15:30;;;;;;;4.20;3.80;;;9.20;99.90;;;;;;5035144;28;20719;-66
2024/03/13 06:17:56;;;;;;;3.80;3.50;;;9.20;99.90;;;;;;5034071;28;20667;-67
2024/03/13 06:20:22;;;;;;;3.30;3.00;;;9.20;99.90;;;;;;5034713;28;20186;-66
2024/03/13 06:22:48;;;;;;;5.60;3.40;;;9.20;99.90;;;;;;5033501;28;20446;-66
2024/03/13 06:25:14;;;;;;;3.17;2.90;;;9.20;99.90;;;;;;5032973;28;20300;-66
2024/03/13 06:27:40;;;;;;;5.57;3.03;;;9.10;99.90;;;;;;5034777;28;20652;-65
2024/03/13 06:30:08;;;;;;;3.77;3.27;;;9.20;99.90;;;;;;5033450;28;20429;-65
2024/03/13 06:32:35;;;;;;;3.13;2.83;;;9.30;99.90;;;;;;5035198;28;22520;-66
2024/03/13 06:35:03;;;;;;;3.60;3.20;;;9.30;99.90;;;;;;5033862;28;21117;-66
2024/03/13 06:37:29;;;;;;;3.30;3.00;;;9.30;99.90;;;;;;5033919;28;20447;-66
2024/03/13 06:39:58;;;;;;;2.87;2.67;;;9.30;99.90;;;;;;5034696;28;20459;-66
2024/03/13 06:42:24;;;;;;;3.43;2.80;;;9.30;99.90;;;;;;5034255;28;20435;-67
2024/03/13 06:44:50;;;;;;;4.50;3.47;;;9.40;99.90;;;;;;5033756;28;20428;-65
2024/03/13 06:47:16;;;;;;;3.77;2.90;;;9.40;99.90;;;;;;5032339;28;20484;-66
2024/03/13 06:49:45;;;;;;;3.40;3.10;;;9.40;99.90;;;;;;5034979;28;20433;-66
2024/03/13 06:52:13;;;;;;;3.60;3.23;;;9.40;99.90;;;;;;5032832;28;20429;-65
2024/03/13 06:54:44;;;;;;;3.60;2.80;;;9.40;99.90;;;;;;5049581;28;20441;-66
2024/03/13 06:57:10;;;;;;;2.87;2.57;;;9.40;99.90;;;;;;5033303;28;20444;-66
2024/03/13 06:59:36;;;;;;;2.97;2.70;;;9.50;99.90;;;;;;5034720;28;20961;-66
2024/03/13 07:02:02;;;;;;;4.10;3.17;;;9.50;99.90;;;;;;5033470;28;20431;-66
2024/03/13 07:04:29;;;;;;;3.03;2.73;;;9.50;99.90;;;;;;5034124;28;20550;-66
2024/03/13 07:07:00;;;;;;;2.93;2.63;;;9.50;99.90;;;;;;5033596;28;20571;-66
2024/03/13 07:09:29;;;;;;;3.63;2.77;;;9.50;99.90;;;;;;5031714;28;20472;-65
2024/03/13 07:11:55;;;;;;;3.57;2.80;;;9.50;99.90;;;;;;5033592;28;20440;-65
2024/03/13 07:14:21;;;;;;;3.13;2.83;;;9.50;99.90;;;;;;5033939;28;20938;-66
2024/03/13 07:16:47;;;;;;;2.87;2.57;;;9.60;99.90;;;;;;5033902;28;20428;-67
2024/03/13 07:19:13;;;;;;;3.60;2.57;;;9.60;99.90;;;;;;5033149;28;20436;-66
2024/03/13 07:21:40;;;;;;;3.03;2.60;;;9.60;99.90;;;;;;5034243;28;20442;-67
2024/03/13 07:24:06;;;;;;;3.93;2.90;;;9.60;99.90;;;;;;5033612;28;20562;-66
2024/03/13 07:26:32;;;;;;;2.20;1.90;;;9.60;99.90;;;;;;5032980;28;20464;-66
2024/03/13 07:29:00;;;;;;;2.53;2.10;;;9.60;99.90;;;;;;5033262;28;21054;-66
2024/03/13 07:31:27;;;;;;;3.27;2.47;;;9.70;99.90;;;;;;5033425;28;20548;-66
2024/03/13 07:33:54;;;;;;;2.97;2.13;;;9.70;99.90;;;;;;5033171;28;20531;-66
2024/03/13 07:36:22;;;;;;;3.40;2.80;;;9.70;99.90;;;;;;5035827;28;20429;-66
2024/03/13 07:38:52;;;;;;;2.80;2.20;;;9.70;99.90;;;;;;5037660;28;20435;-66
2024/03/13 07:41:18;;;;;;;2.50;2.30;;;9.80;99.90;;;;;;5037223;28;20436;-66
2024/03/13 07:43:43;;;;;;;3.50;2.80;;;9.80;99.90;;;;;;5038230;28;20490;-66
2024/03/13 07:46:11;;;;;;;2.67;2.20;;;9.80;99.90;;;;;;5036679;28;20610;-66
2024/03/13 07:48:39;;;;;;;3.33;2.63;;;9.80;99.90;;;;;;5036668;28;20860;-66
2024/03/13 07:51:09;;;;;;;2.40;2.20;;;9.90;99.90;;;;;;5036617;28;20439;-65
2024/03/13 07:53:35;;;;;;;3.50;2.30;;;9.90;99.90;;;;;;5037529;28;20444;-67
2024/03/13 07:56:01;;;;;;;2.90;2.60;;;9.90;99.90;;;;;;5036469;28;20479;-66
2024/03/13 07:58:27;;;;;;;2.33;2.13;;;9.90;99.90;;;;;;5036083;28;20468;-67
2024/03/13 08:00:53;;;;;;;3.63;2.90;;;9.90;99.90;;;;;;5036935;28;20525;-67
2024/03/13 08:03:18;;;;;;;3.03;2.83;;;9.90;99.90;;;;;;5037175;28;20270;-66
2024/03/13 08:05:55;;;;;;;3.30;3.00;;;10.00;99.90;;;;;;5037171;28;20464;-66
2024/03/13 08:08:21;;;;;;;2.70;2.50;;;10.00;99.90;;;;;;5036798;28;20190;-66
2024/03/13 08:10:46;;;;;;;4.00;2.77;;;10.10;99.90;;;;;;5035795;28;20923;-66
2024/03/13 08:13:12;;;;;;;2.50;2.30;;;10.10;99.90;;;;;;5034373;28;20440;-66
2024/03/13 08:15:38;;;;;;;3.47;3.17;;;10.20;99.90;;;;;;5037297;28;20177;-66
2024/03/13 08:18:05;;;;;;;2.87;2.67;;;10.20;99.90;;;;;;5036367;28;20196;-66
2024/03/13 08:20:30;;;;;;;3.20;2.93;;;10.20;99.90;;;;;;5036711;28;20436;-67
2024/03/13 08:22:58;;;;;;;3.23;3.00;;;10.30;99.90;;;;;;5036444;28;20459;-65
2024/03/13 08:25:23;;;;;;;4.00;3.27;;;10.30;99.90;;;;;;5035768;28;20224;-65
2024/03/13 08:27:49;;;;;;;3.77;3.47;;;10.30;99.90;;;;;;5036230;28;20441;-66
2024/03/13 08:30:18;;;;;;;4.50;3.60;;;10.30;99.90;;;;;;5036102;28;20231;-66
2024/03/13 08:32:44;;;;;;;3.60;3.30;;;10.30;99.90;;;;;;5036641;28;20527;-66
2024/03/13 08:35:10;;;;;;;3.73;3.33;;;10.30;99.90;;;;;;5036261;28;20805;-66
2024/03/13 08:37:36;;;;;;;3.70;3.40;;;10.30;99.90;;;;;;5036683;28;20429;-66
2024/03/13 08:40:06;;;;;;;3.90;3.23;;;10.40;99.90;;;;;;5035197;28;20845;-66
2024/03/13 08:42:33;;;;;;;3.10;2.90;;;10.40;99.90;;;;;;5035588;28;20189;-67
2024/03/13 08:44:58;;;;;;;3.90;3.23;;;10.40;99.90;;;;;;5036054;28;20443;-65
2024/03/13 08:47:26;;;;;;;3.80;3.40;;;10.40;99.90;;;;;;5034944;28;20448;-66
2024/03/13 08:49:52;;;;;;;3.20;2.93;;;10.40;99.90;;;;;;5036066;28;20205;-66
2024/03/13 08:52:18;;;;;;;3.73;2.90;;;10.40;99.90;;;;;;5035483;28;20920;-66
2024/03/13 08:54:44;;;;;;;3.20;2.90;;;10.50;99.90;;;;;;5036722;28;20179;-67
2024/03/13 08:57:09;;;;;;;3.53;3.23;;;10.50;99.90;;;;;;5035894;28;20635;-66
2024/03/13 08:59:35;;;;;;;3.20;2.90;;;10.60;99.90;;;;;;5036248;28;20179;-66
2024/03/13 09:02:07;;;;;;;3.53;3.23;;;10.60;99.90;;;;;;5034843;28;20179;-66
2024/03/13 09:04:33;;;;;;;3.17;2.87;;;10.70;99.90;;;;;;5035486;28;20471;-66
2024/03/13 09:07:00;;;;;;;2.90;2.60;;;10.70;99.90;;;;;;5035142;28;20477;-67
2024/03/13 09:09:27;;;;;;;2.83;2.30;;;10.70;99.90;;;;;;5035997;28;20667;-66
2024/03/13 09:11:53;;;;;;;3.20;2.90;;;10.80;99.90;;;;;;5034806;28;20502;-66
2024/03/13 09:14:20;;;;;;;3.63;3.33;;;10.80;99.90;;;;;;5035249;28;20429;-66
2024/03/13 09:16:48;;;;;;;2.47;2.27;;;10.90;99.90;;;;;;5035617;28;20691;-66
2024/03/13 09:19:14;;;;;;;3.50;3.20;;;10.90;99.90;;;;;;5035102;28;20433;-65
2024/03/13 09:21:42;;;;;;;3.37;3.07;;;10.90;99.90;;;;;;5035758;28;20435;-66
2024/03/13 09:24:08;;;;;;;3.43;3.13;;;10.90;99.90;;;;;;5034426;28;20433;-67
2024/03/13 09:26:36;;;;;;;2.80;2.60;;;10.90;99.90;;;;;;5034869;28;20514;-67
2024/03/13 09:29:02;;;;;;;2.90;2.70;;;10.90;99.90;;;;;;5034330;28;20813;-66
2024/03/13 09:31:28;;;;;;;3.07;2.67;;;10.90;99.90;;;;;;5034199;28;20443;-66
2024/03/13 09:33:53;;;;;;;2.53;2.33;;;10.90;99.90;;;;;;5033963;28;20298;-66
2024/03/13 09:36:19;;;;;;;2.40;2.20;;;10.90;99.90;;;;;;5035106;28;20183;-66
2024/03/13 09:38:45;;;;;;;2.70;2.50;;;10.90;99.90;;;;;;5034900;28;20170;-67
2024/03/13 09:41:13;;;;;;;2.87;2.67;;;10.90;99.90;;;;;;5034520;28;20174;-66
2024/03/13 09:43:39;;;;;;;2.80;2.60;;;11.00;99.90;;;;;;5034388;28;20265;-68
2024/03/13 09:46:07;;;;;;;2.90;2.70;;;11.00;99.90;;;;;;5034135;28;20472;-67
2024/03/13 09:48:39;;;;;;;3.30;3.00;;;11.10;99.90;;;;;;5034750;28;20440;-66
2024/03/13 09:51:05;;;;;;;3.53;2.97;;;11.00;99.90;;;;;;5033281;28;20835;-66
2024/03/13 09:53:33;;;;;;;2.93;2.73;;;11.10;99.90;;;;;;5034572;28;20448;-67
2024/03/13 09:55:59;;;;;;;2.90;2.60;;;11.20;99.90;;;;;;5032879;28;20437;-67
2024/03/13 09:58:25;;;;;;;3.60;3.00;;;11.20;99.90;;;;;;5034636;28;20444;-66
2024/03/13 10:00:56;;;;;;;3.77;3.33;;;11.20;99.90;;;;;;5033943;28;21020;-65
2024/03/13 10:03:25;;;;;;;2.80;2.50;;;11.20;99.90;;;;;;5034345;28;20443;-66
2024/03/13 10:06:05;;;;;;;3.10;2.67;;;11.20;99.90;;;;;;5033372;28;20471;-66
2024/03/13 10:08:32;;;;;;;3.47;3.13;;;11.20;99.90;;;;;;5033816;28;20521;-65
2024/03/13 10:11:01;;;;;;;2.73;2.50;;;11.20;99.90;;;;;;5032865;28;20424;-66
2024/03/13 10:13:30;;;;;;;3.13;2.83;;;11.20;99.90;;;;;;5034079;28;21016;-66
2024/03/13 10:15:57;;;;;;;3.37;2.67;;;11.30;99.90;;;;;;5033244;28;20422;-66
2024/03/13 10:18:25;;;;;;;3.07;2.77;;;11.30;99.90;;;;;;5033142;28;20458;-66
2024/03/13 10:21:14;;;;;;;3.87;2.90;;;11.30;99.90;;;;;;5033267;28;20436;-65
2024/03/13 10:23:45;;;;;;;4.10;3.17;;;11.30;99.90;;;;;;5033089;28;20435;-66
2024/03/13 10:26:12;;;;;;;4.63;3.40;;;11.30;99.90;;;;;;5033266;28;20933;-66
2024/03/13 10:28:38;;;;;;;4.00;2.77;;;11.30;99.90;;;;;;5032999;28;20433;-66
2024/03/13 10:31:05;;;;;;;7.77;3.87;;;11.40;99.90;;;;;;5032603;28;20437;-66
2024/03/13 10:33:31;;;;;;;3.83;3.30;;;11.40;99.90;;;;;;5033569;28;20788;-66
2024/03/13 10:35:57;;;;;;;4.17;3.47;;;11.50;99.90;;;;;;5033013;28;20440;-65
2024/03/13 10:38:23;;;;;;;4.30;3.50;;;11.50;99.90;;;;;;5033436;28;20420;-66
2024/03/13 10:40:49;;;;;;;4.37;3.90;;;11.50;99.90;;;;;;5032376;28;20541;-66
2024/03/13 10:43:15;;;;;;;4.77;3.23;;;11.40;99.90;;;;;;5033747;28;20444;-66
2024/03/13 10:45:47;;;;;;;4.80;3.67;;;11.50;99.90;;;;;;5032836;28;20240;-67
2024/03/13 10:48:13;;;;;;;7.73;4.53;;;11.60;99.90;;;;;;5033988;28;20633;-66
2024/03/13 10:50:40;;;;;;;4.90;3.30;;;11.60;99.90;;;;;;5032410;28;20437;-66
2024/03/13 10:53:07;;;;;;;5.50;3.87;;;11.60;99.90;;;;;;5033641;28;20437;-66
2024/03/13 10:55:32;;;;;;;4.20;3.50;;;11.60;99.90;;;;;;5032456;28;20448;-66
2024/03/13 10:57:58;;;;;;;4.73;3.70;;;11.60;99.90;;;;;;5032324;28;21083;-66
2024/03/13 11:00:28;;;;;;;4.80;3.90;;;11.60;99.90;;;;;;5032580;28;20875;-66
2024/03/13 11:02:54;;;;;;;5.30;4.50;;;11.60;99.90;;;;;;5032600;28;20426;-67
2024/03/13 11:05:21;;;;;;;7.80;4.73;;;11.60;99.90;;;;;;5032985;28;20950;-66
2024/03/13 11:07:47;;;;;;;9.00;5.40;;;11.60;99.90;;;;;;5032471;28;20433;-66
2024/03/13 11:10:21;;;;;;;9.83;6.37;;;11.60;99.90;;;;;;5034854;28;20448;-66
2024/03/13 11:12:50;;;;;;;10.17;6.30;;;11.60;99.90;;;;;;5039233;28;20981;-65
2024/03/13 11:15:31;;;;;;;9.27;6.60;;;11.60;99.90;;;;;;5039627;28;20429;-66
2024/03/13 11:18:03;;;;;;;12.40;7.70;;;11.60;99.90;;;;;;5038528;28;20435;-67
2024/03/13 11:20:37;;;;;;;9.73;7.40;;;11.60;99.90;;;;;;5039764;28;20432;-66
2024/03/13 11:23:19;;;;;;;11.13;7.90;;;11.60;99.90;;;;;;5040134;28;20435;-66
2024/03/13 11:25:47;;;;;;;12.27;9.17;;;11.70;99.90;;;;;;5038425;28;20490;-66
2024/03/13 11:28:21;;;;;;;16.23;9.60;;;11.70;99.90;;;;;;5039885;28;20486;-66
2024/03/13 11:30:48;;;;;;;13.30;9.30;;;11.60;99.90;;;;;;5023521;28;20559;-66
2024/03/13 11:33:14;;;;;;;14.47;9.33;;;11.60;99.90;;;;;;5040195;28;20431;-65
2024/03/13 11:35:40;;;;;;;15.77;9.63;;;11.60;99.90;;;;;;5039020;28;20435;-65
2024/03/13 11:38:08;;;;;;;13.23;10.10;;;11.60;99.90;;;;;;5039960;28;20425;-66
2024/03/13 11:40:36;;;;;;;14.87;10.50;;;11.70;99.90;;;;;;5038190;28;20484;-67
2024/03/13 11:43:05;;;;;;;11.97;9.37;;;11.70;99.90;;;;;;5040015;28;20527;-67
2024/03/13 11:45:40;;;;;;;13.43;8.70;;;11.70;99.90;;;;;;5040915;28;20497;-67
2024/03/13 11:48:13;;;;;;;13.90;9.43;;;11.70;99.90;;;;;;5040695;28;20535;-65
2024/03/13 11:51:08;;;;;;;14.00;9.50;;;11.70;99.90;;;;;;5038594;28;20875;-66
2024/03/13 11:53:35;;;;;;;17.37;10.17;;;11.80;99.90;;;;;;5041347;28;21070;-66
2024/03/13 11:56:09;;;;;;;12.07;9.20;;;11.80;99.90;;;;;;5022660;28;20468;-66
2024/03/13 11:58:38;;;;;;;13.13;9.37;;;11.80;99.90;;;;;;5040096;28;20434;-66
2024/03/13 12:01:07;;;;;;;11.60;8.70;;;11.80;99.90;;;;;;5040865;28;20849;-66
2024/03/13 12:03:42;;;;;;;10.60;8.37;;;11.80;99.90;;;;;;5040853;28;20522;-67
2024/03/13 12:06:29;;;;;;;12.90;8.50;;;11.80;99.90;;;;;;5040605;28;20961;-66
2024/03/13 12:08:56;;;;;;;8.97;6.97;;;11.80;99.90;;;;;;5039636;28;20578;-66
2024/03/13 12:11:21;;;;;;;9.73;7.70;;;11.80;99.90;;;;;;5039357;28;21132;-66
2024/03/13 12:13:48;;;;;;;11.20;7.47;;;11.80;99.90;;;;;;5039962;28;20539;-66
2024/03/13 12:16:20;;;;;;;8.77;7.60;;;11.80;99.90;;;;;;5041323;28;20275;-67
2024/03/13 12:18:55;;;;;;;9.63;6.43;;;11.80;99.90;;;;;;5039608;28;20485;-66
2024/03/13 12:21:23;;;;;;;8.70;6.87;;;11.80;99.90;;;;;;5040131;28;20774;-65
2024/03/13 12:23:49;;;;;;;9.10;7.53;;;11.80;99.90;;;;;;5036032;28;20421;-67
2024/03/13 12:26:15;;;;;;;10.33;6.90;;;11.80;99.90;;;;;;5035704;28;20468;-66
2024/03/13 12:28:41;;;;;;;11.27;6.80;;;11.80;99.90;;;;;;5036877;28;20240;-66
2024/03/13 12:31:07;;;;;;;9.47;6.80;;;11.80;99.90;;;;;;5037414;28;20437;-66
2024/03/13 12:33:36;;;;;;;10.97;6.70;;;11.80;99.90;;;;;;5037422;28;20243;-66
2024/03/13 12:36:06;;;;;;;7.87;5.90;;;11.80;99.90;;;;;;5036736;28;20429;-66
2024/03/13 12:38:39;;;;;;;7.63;5.67;;;11.80;99.90;;;;;;5036153;28;20810;-65
2024/03/13 12:41:08;;;;;;;7.47;5.20;;;11.80;99.90;;;;;;5018954;28;20427;-66
2024/03/13 12:43:34;;;;;;;7.40;5.60;;;11.90;99.90;;;;;;5036546;28;20444;-67
2024/03/13 12:46:04;;;;;;;7.97;6.50;;;11.90;99.90;;;;;;5035968;28;20969;-66
2024/03/13 12:48:33;;;;;;;9.07;6.40;;;11.90;99.90;;;;;;5036332;28;20476;-67
2024/03/13 12:51:00;;;;;;;9.40;5.73;;;11.90;99.90;;;;;;5036372;28;20429;-67
2024/03/13 12:53:27;;;;;;;7.80;6.20;;;11.90;99.90;;;;;;5035843;28;20860;-65
2024/03/13 12:55:54;;;;;;;8.30;6.07;;;11.90;99.90;;;;;;5036442;28;21087;-67
2024/03/13 12:58:21;;;;;;;7.57;6.23;;;11.90;99.90;;;;;;5036931;28;20482;-67
2024/03/13 13:00:46;;;;;;;7.37;5.90;;;12.00;99.90;;;;;;5035949;28;20432;-66
2024/03/13 13:03:14;;;;;;;8.80;6.03;;;11.90;99.90;;;;;;5036486;28;20519;-66
2024/03/13 13:05:41;;;;;;;8.90;6.47;;;11.90;99.90;;;;;;5036134;28;20236;-67